MARDI EGLF-LFMN
Flight info
| Callsign | MARDI |
|---|---|
| Flight time | 1h 21m |
| Altitude | 45000 |
| Route | GWC DCT BOGNA L612 XAMAB UL612 RESMI UM728 KETEX DCT KOTIS DCT KUKOR DCT UTUVA DCT LERGA DCT LIQID DCT LATAM DCT TUNUR DCT NISAR |
| Aircraft | GLF6/M-SBDE2E3FGHIJ4J5M1RWXY/LB1D1 |
Departure
| Time | 2026-04-25 13:59 |
|---|---|
| Airport | Farnborough Airport (EGLF) |
Arrival
| Time | 2026-04-25 15:21 |
|---|---|
| Airport | Nice-Côte d'Azur Airport (LFMN) |
| Time | Latitude | Longitude | Altitude | Speed | Heading |
|---|---|---|---|---|---|
| 2026-04-25 13:59 | 51.15832 | -0.90444 | 7636 ft | 239 kts | 205° |
| 2026-04-25 13:59 | 51.14319 | -0.91528 | 8380 ft | 241 kts | 205° |
| 2026-04-25 13:59 | 51.12872 | -0.92820 | 9116 ft | 241 kts | 226° |
| 2026-04-25 14:00 | 51.12006 | -0.95037 | 9927 ft | 241 kts | 246° |
| 2026-04-25 14:00 | 51.11303 | -0.97451 | 10664 ft | 244 kts | 246° |
| 2026-04-25 14:00 | 51.10296 | -0.99591 | 11390 ft | 248 kts | 214° |
| 2026-04-25 14:00 | 51.08644 | -1.00344 | 12204 ft | 264 kts | 179° |
| 2026-04-25 14:01 | 51.06769 | -0.99957 | 13016 ft | 281 kts | 173° |
| 2026-04-25 14:01 | 51.04790 | -0.99475 | 13807 ft | 299 kts | 173° |
| 2026-04-25 14:01 | 51.02699 | -0.98972 | 14577 ft | 316 kts | 173° |
| 2026-04-25 14:01 | 51.00500 | -0.98434 | 15337 ft | 323 kts | 171° |
| 2026-04-25 14:02 | 50.98327 | -0.97628 | 16093 ft | 324 kts | 168° |
| 2026-04-25 14:02 | 50.96145 | -0.96666 | 16846 ft | 327 kts | 158° |
| 2026-04-25 14:02 | 50.94327 | -0.94583 | 17618 ft | 333 kts | 137° |
| 2026-04-25 14:02 | 50.93773 | -0.93718 | 17884 ft | 335 kts | 136° |
| 2026-04-25 14:03 | 50.91007 | -0.89357 | 19154 ft | 343 kts | 136° |
| 2026-04-25 14:03 | 50.89356 | -0.86586 | 19908 ft | 348 kts | 126° |
| 2026-04-25 14:03 | 50.88131 | -0.83278 | 20702 ft | 353 kts | 118° |
| 2026-04-25 14:03 | 50.86964 | -0.79874 | 21453 ft | 358 kts | 119° |
| 2026-04-25 14:04 | 50.85775 | -0.76420 | 22215 ft | 363 kts | 119° |
| 2026-04-25 14:04 | 50.84642 | -0.72794 | 22994 ft | 376 kts | 115° |
| 2026-04-25 14:04 | 50.83511 | -0.69011 | 23791 ft | 389 kts | 115° |
| 2026-04-25 14:04 | 50.82343 | -0.65126 | 24588 ft | 401 kts | 115° |
| 2026-04-25 14:05 | 50.81127 | -0.61094 | 25398 ft | 413 kts | 116° |
| 2026-04-25 14:05 | 50.79892 | -0.57008 | 26204 ft | 422 kts | 116° |
| 2026-04-25 14:05 | 50.78616 | -0.52795 | 27020 ft | 431 kts | 116° |
| 2026-04-25 14:05 | 50.77313 | -0.48498 | 27840 ft | 439 kts | 116° |
| 2026-04-25 14:06 | 50.75988 | -0.44137 | 28662 ft | 446 kts | 116° |
| 2026-04-25 14:06 | 50.74635 | -0.39697 | 29487 ft | 452 kts | 116° |
| 2026-04-25 14:06 | 50.73286 | -0.35272 | 30302 ft | 458 kts | 116° |
| 2026-04-25 14:06 | 50.71888 | -0.30697 | 31116 ft | 462 kts | 117° |
| 2026-04-25 14:07 | 50.70332 | -0.26359 | 31888 ft | 463 kts | 129° |
| 2026-04-25 14:07 | 50.67989 | -0.22940 | 32706 ft | 460 kts | 146° |
| 2026-04-25 14:07 | 50.65349 | -0.20102 | 33458 ft | 462 kts | 148° |
| 2026-04-25 14:07 | 50.62676 | -0.17284 | 33758 ft | 473 kts | 148° |
| 2026-04-25 14:08 | 50.59903 | -0.14378 | 34037 ft | 485 kts | 148° |
| 2026-04-25 14:08 | 50.57082 | -0.11428 | 34312 ft | 495 kts | 148° |
| 2026-04-25 14:08 | 50.54209 | -0.08430 | 34524 ft | 505 kts | 148° |
| 2026-04-25 14:08 | 50.51263 | -0.05361 | 34896 ft | 510 kts | 148° |
| 2026-04-25 14:09 | 50.48339 | -0.02318 | 35615 ft | 505 kts | 148° |
| 2026-04-25 14:09 | 50.45413 | 0.00721 | 36189 ft | 504 kts | 148° |
| 2026-04-25 14:09 | 50.42524 | 0.03717 | 36736 ft | 504 kts | 148° |
| 2026-04-25 14:09 | 50.40583 | 0.05727 | 37203 ft | 503 kts | 148° |
| 2026-04-25 14:10 | 50.36705 | 0.09737 | 38095 ft | 502 kts | 148° |
| 2026-04-25 14:10 | 50.33828 | 0.12707 | 38732 ft | 501 kts | 148° |
| 2026-04-25 14:10 | 50.30919 | 0.15707 | 39333 ft | 500 kts | 148° |
| 2026-04-25 14:10 | 50.28025 | 0.18685 | 39899 ft | 499 kts | 148° |
| 2026-04-25 14:11 | 50.25128 | 0.21663 | 40365 ft | 498 kts | 148° |
| 2026-04-25 14:11 | 50.22260 | 0.24605 | 40742 ft | 499 kts | 148° |
| 2026-04-25 14:11 | 50.19397 | 0.27544 | 41098 ft | 499 kts | 148° |
| 2026-04-25 14:11 | 50.16507 | 0.30520 | 41461 ft | 499 kts | 148° |
| 2026-04-25 14:12 | 50.13614 | 0.33493 | 41818 ft | 499 kts | 148° |
| 2026-04-25 14:12 | 50.10710 | 0.36473 | 42142 ft | 499 kts | 148° |
| 2026-04-25 14:12 | 50.07839 | 0.39415 | 42447 ft | 500 kts | 148° |
| 2026-04-25 14:12 | 50.04924 | 0.42397 | 42742 ft | 500 kts | 148° |
| 2026-04-25 14:13 | 50.02029 | 0.45356 | 43014 ft | 501 kts | 148° |
| 2026-04-25 14:13 | 49.99105 | 0.48338 | 43295 ft | 501 kts | 148° |
| 2026-04-25 14:13 | 49.96226 | 0.51272 | 43554 ft | 501 kts | 148° |
| 2026-04-25 14:13 | 49.93312 | 0.54236 | 43768 ft | 502 kts | 148° |
| 2026-04-25 14:14 | 49.90399 | 0.57194 | 43998 ft | 502 kts | 148° |
| 2026-04-25 14:14 | 49.87483 | 0.60152 | 44240 ft | 502 kts | 147° |
| 2026-04-25 14:14 | 49.84643 | 0.63255 | 44395 ft | 505 kts | 142° |
| 2026-04-25 14:14 | 49.81929 | 0.66696 | 44600 ft | 505 kts | 142° |
| 2026-04-25 14:15 | 49.79250 | 0.70078 | 44847 ft | 504 kts | 142° |
| 2026-04-25 14:15 | 49.73822 | 0.76902 | 45156 ft | 507 kts | 142° |
| 2026-04-25 14:16 | 49.68319 | 0.83797 | 45159 ft | 515 kts | 142° |
| 2026-04-25 14:16 | 49.62769 | 0.90731 | 45163 ft | 516 kts | 142° |
| 2026-04-25 14:17 | 49.57195 | 0.97672 | 45161 ft | 517 kts | 142° |
| 2026-04-25 14:17 | 49.51609 | 1.04609 | 45158 ft | 517 kts | 142° |
| 2026-04-25 14:18 | 49.46031 | 1.11514 | 45166 ft | 518 kts | 142° |
| 2026-04-25 14:18 | 49.40431 | 1.18426 | 45162 ft | 518 kts | 142° |
| 2026-04-25 14:19 | 49.34849 | 1.25294 | 45157 ft | 517 kts | 142° |
| 2026-04-25 14:19 | 49.29218 | 1.32206 | 45160 ft | 517 kts | 142° |
| 2026-04-25 14:20 | 49.23617 | 1.39057 | 45150 ft | 518 kts | 142° |
| 2026-04-25 14:20 | 49.18027 | 1.45877 | 45140 ft | 518 kts | 142° |
| 2026-04-25 14:21 | 49.12409 | 1.52708 | 45141 ft | 518 kts | 142° |
| 2026-04-25 14:21 | 49.06791 | 1.59520 | 45136 ft | 518 kts | 142° |
| 2026-04-25 14:22 | 49.01151 | 1.66338 | 45129 ft | 518 kts | 143° |
| 2026-04-25 14:22 | 48.95560 | 1.73076 | 45124 ft | 518 kts | 143° |
| 2026-04-25 14:23 | 48.89920 | 1.79856 | 45124 ft | 518 kts | 143° |
| 2026-04-25 14:23 | 48.84288 | 1.86604 | 45125 ft | 517 kts | 143° |
| 2026-04-25 14:24 | 48.78670 | 1.93316 | 45134 ft | 517 kts | 143° |
| 2026-04-25 14:24 | 48.73025 | 2.00040 | 45127 ft | 517 kts | 143° |
| 2026-04-25 14:25 | 48.67371 | 2.06755 | 45128 ft | 517 kts | 143° |
| 2026-04-25 14:25 | 48.61737 | 2.13427 | 45132 ft | 517 kts | 143° |
| 2026-04-25 14:26 | 48.55808 | 2.19328 | 45137 ft | 510 kts | 162° |
| 2026-04-25 14:26 | 48.49008 | 2.22162 | 45128 ft | 512 kts | 167° |
| 2026-04-25 14:27 | 48.42107 | 2.24794 | 45123 ft | 512 kts | 167° |
| 2026-04-25 14:27 | 48.35214 | 2.27401 | 45117 ft | 512 kts | 167° |
| 2026-04-25 14:28 | 48.28316 | 2.30006 | 45115 ft | 512 kts | 167° |
| 2026-04-25 14:28 | 48.21584 | 2.33148 | 45127 ft | 513 kts | 160° |
| 2026-04-25 14:29 | 48.14902 | 2.36993 | 45113 ft | 514 kts | 160° |
| 2026-04-25 14:29 | 48.08291 | 2.40797 | 45109 ft | 514 kts | 160° |
| 2026-04-25 14:30 | 48.01642 | 2.44613 | 45113 ft | 514 kts | 160° |
| 2026-04-25 14:30 | 47.91628 | 2.50341 | 45111 ft | 514 kts | 160° |
| 2026-04-25 14:31 | 47.84973 | 2.54135 | 45100 ft | 514 kts | 160° |
| 2026-04-25 14:31 | 47.78353 | 2.57897 | 45102 ft | 513 kts | 160° |
| 2026-04-25 14:32 | 47.71686 | 2.61678 | 45107 ft | 513 kts | 160° |
| 2026-04-25 14:32 | 47.65065 | 2.65420 | 45103 ft | 513 kts | 161° |
| 2026-04-25 14:33 | 47.58438 | 2.69157 | 45101 ft | 514 kts | 161° |
| 2026-04-25 14:33 | 47.51745 | 2.72920 | 45106 ft | 514 kts | 161° |
| 2026-04-25 14:34 | 47.45134 | 2.76627 | 45102 ft | 513 kts | 161° |
| 2026-04-25 14:34 | 47.38459 | 2.80360 | 45095 ft | 513 kts | 161° |
| 2026-04-25 14:35 | 47.31829 | 2.84058 | 45101 ft | 513 kts | 161° |
| 2026-04-25 14:35 | 47.25201 | 2.87744 | 45098 ft | 513 kts | 161° |
| 2026-04-25 14:36 | 47.18511 | 2.91456 | 45091 ft | 513 kts | 161° |
| 2026-04-25 14:36 | 47.11870 | 2.95130 | 45096 ft | 513 kts | 161° |
| 2026-04-25 14:37 | 47.05256 | 2.98780 | 45099 ft | 513 kts | 161° |
| 2026-04-25 14:37 | 46.98581 | 3.02453 | 45101 ft | 514 kts | 161° |
| 2026-04-25 14:38 | 46.91942 | 3.06097 | 45100 ft | 513 kts | 161° |
| 2026-04-25 14:38 | 46.85270 | 3.09748 | 45090 ft | 513 kts | 161° |
| 2026-04-25 14:39 | 46.78620 | 3.13379 | 45090 ft | 513 kts | 161° |
| 2026-04-25 14:39 | 46.71938 | 3.17017 | 45088 ft | 513 kts | 161° |
| 2026-04-25 14:40 | 46.65274 | 3.20635 | 45088 ft | 513 kts | 161° |
| 2026-04-25 14:40 | 46.58626 | 3.24237 | 45088 ft | 513 kts | 161° |
| 2026-04-25 14:41 | 46.51995 | 3.27819 | 45087 ft | 513 kts | 161° |
| 2026-04-25 14:41 | 46.45294 | 3.31429 | 45087 ft | 513 kts | 161° |
| 2026-04-25 14:42 | 46.39747 | 3.34411 | 45090 ft | 513 kts | 161° |
| 2026-04-25 14:42 | 46.31942 | 3.38594 | 45092 ft | 513 kts | 161° |
| 2026-04-25 14:43 | 46.25259 | 3.42167 | 45093 ft | 513 kts | 161° |
| 2026-04-25 14:43 | 46.18597 | 3.45719 | 45097 ft | 513 kts | 161° |
| 2026-04-25 14:44 | 46.11922 | 3.49269 | 45098 ft | 513 kts | 161° |
| 2026-04-25 14:44 | 46.05261 | 3.52802 | 45100 ft | 513 kts | 161° |
| 2026-04-25 14:45 | 45.98603 | 3.56325 | 45101 ft | 513 kts | 161° |
| 2026-04-25 14:45 | 45.91923 | 3.59850 | 45108 ft | 513 kts | 161° |
| 2026-04-25 14:46 | 45.85232 | 3.63372 | 45113 ft | 513 kts | 161° |
| 2026-04-25 14:46 | 45.78559 | 3.66875 | 45117 ft | 513 kts | 161° |
| 2026-04-25 14:47 | 45.72997 | 3.69789 | 45129 ft | 513 kts | 161° |
| 2026-04-25 14:47 | 45.65168 | 3.73879 | 45131 ft | 512 kts | 161° |
| 2026-04-25 14:48 | 45.58509 | 3.77348 | 45123 ft | 512 kts | 161° |
| 2026-04-25 14:48 | 45.51865 | 3.80802 | 45117 ft | 512 kts | 161° |
| 2026-04-25 14:49 | 45.45189 | 3.84262 | 45119 ft | 512 kts | 161° |
| 2026-04-25 14:49 | 45.38507 | 3.87717 | 45116 ft | 513 kts | 161° |
| 2026-04-25 14:50 | 45.31831 | 3.91160 | 45116 ft | 513 kts | 161° |
| 2026-04-25 14:50 | 45.25117 | 3.94615 | 45112 ft | 513 kts | 162° |
| 2026-04-25 14:51 | 45.18424 | 3.98050 | 45109 ft | 512 kts | 161° |
| 2026-04-25 14:51 | 45.15245 | 4.00254 | 45110 ft | 511 kts | 145° |
| 2026-04-25 14:51 | 45.12708 | 4.03665 | 45136 ft | 514 kts | 128° |
| 2026-04-25 14:52 | 45.08777 | 4.12165 | 45112 ft | 518 kts | 123° |
| 2026-04-25 14:52 | 45.06214 | 4.17752 | 45110 ft | 518 kts | 123° |
| 2026-04-25 14:53 | 45.01242 | 4.27226 | 45054 ft | 508 kts | 133° |
| 2026-04-25 14:53 | 44.96518 | 4.34482 | 44976 ft | 505 kts | 133° |
| 2026-04-25 14:54 | 44.94119 | 4.38166 | 44587 ft | 510 kts | 133° |
| 2026-04-25 14:54 | 44.91753 | 4.41797 | 44076 ft | 510 kts | 133° |
| 2026-04-25 14:54 | 44.89359 | 4.45467 | 43520 ft | 506 kts | 133° |
| 2026-04-25 14:54 | 44.86986 | 4.49098 | 42959 ft | 502 kts | 133° |
| 2026-04-25 14:55 | 44.84633 | 4.52694 | 42398 ft | 499 kts | 133° |
| 2026-04-25 14:55 | 44.82300 | 4.56254 | 41847 ft | 498 kts | 133° |
| 2026-04-25 14:55 | 44.79936 | 4.59858 | 41284 ft | 498 kts | 133° |
| 2026-04-25 14:55 | 44.77609 | 4.63401 | 40684 ft | 498 kts | 133° |
| 2026-04-25 14:56 | 44.75257 | 4.66977 | 40088 ft | 498 kts | 134° |
| 2026-04-25 14:56 | 44.72921 | 4.70525 | 39507 ft | 498 kts | 134° |
| 2026-04-25 14:56 | 44.70582 | 4.74071 | 38949 ft | 499 kts | 134° |
| 2026-04-25 14:56 | 44.68214 | 4.77658 | 38385 ft | 500 kts | 134° |
| 2026-04-25 14:57 | 44.65881 | 4.81188 | 37847 ft | 502 kts | 134° |
| 2026-04-25 14:57 | 44.63493 | 4.84831 | 37278 ft | 503 kts | 132° |
| 2026-04-25 14:57 | 44.61227 | 4.88467 | 36747 ft | 504 kts | 132° |
| 2026-04-25 14:57 | 44.58921 | 4.92158 | 36191 ft | 506 kts | 132° |
| 2026-04-25 14:58 | 44.56582 | 4.95893 | 35633 ft | 507 kts | 132° |
| 2026-04-25 14:58 | 44.54277 | 4.99570 | 35077 ft | 509 kts | 132° |
| 2026-04-25 14:58 | 44.51941 | 5.03289 | 34525 ft | 511 kts | 132° |
| 2026-04-25 14:58 | 44.49593 | 5.07022 | 34092 ft | 510 kts | 132° |
| 2026-04-25 14:59 | 44.44929 | 5.14432 | 33714 ft | 516 kts | 132° |
| 2026-04-25 14:59 | 44.42538 | 5.18221 | 33179 ft | 518 kts | 132° |
| 2026-04-25 14:59 | 44.40161 | 5.21984 | 32609 ft | 517 kts | 131° |
| 2026-04-25 15:00 | 44.37792 | 5.25699 | 32040 ft | 516 kts | 134° |
| 2026-04-25 15:00 | 44.35076 | 5.28966 | 31487 ft | 517 kts | 142° |
| 2026-04-25 15:00 | 44.32253 | 5.32040 | 30911 ft | 519 kts | 142° |
| 2026-04-25 15:00 | 44.29453 | 5.35091 | 30347 ft | 507 kts | 142° |
| 2026-04-25 15:01 | 44.26699 | 5.38091 | 29784 ft | 495 kts | 142° |
| 2026-04-25 15:01 | 44.24028 | 5.40996 | 29247 ft | 484 kts | 142° |
| 2026-04-25 15:01 | 44.21377 | 5.43877 | 28719 ft | 481 kts | 142° |
| 2026-04-25 15:01 | 44.18765 | 5.46713 | 28205 ft | 480 kts | 142° |
| 2026-04-25 15:02 | 44.16125 | 5.49575 | 27680 ft | 477 kts | 142° |
| 2026-04-25 15:02 | 44.13526 | 5.52390 | 27156 ft | 474 kts | 142° |
| 2026-04-25 15:02 | 44.10954 | 5.55175 | 26640 ft | 469 kts | 142° |
| 2026-04-25 15:02 | 44.08395 | 5.57942 | 26122 ft | 466 kts | 142° |
| 2026-04-25 15:03 | 44.05861 | 5.60680 | 25612 ft | 463 kts | 142° |
| 2026-04-25 15:03 | 44.03336 | 5.63403 | 25101 ft | 460 kts | 142° |
| 2026-04-25 15:03 | 44.00809 | 5.66127 | 24578 ft | 458 kts | 142° |
| 2026-04-25 15:03 | 43.98312 | 5.68816 | 24073 ft | 455 kts | 142° |
| 2026-04-25 15:04 | 43.95822 | 5.71492 | 23570 ft | 452 kts | 142° |
| 2026-04-25 15:04 | 43.93342 | 5.74156 | 23061 ft | 450 kts | 142° |
| 2026-04-25 15:04 | 43.90883 | 5.76795 | 22565 ft | 447 kts | 142° |
| 2026-04-25 15:04 | 43.88442 | 5.79412 | 22060 ft | 444 kts | 142° |
| 2026-04-25 15:05 | 43.86012 | 5.82014 | 21575 ft | 441 kts | 142° |
| 2026-04-25 15:05 | 43.83608 | 5.84582 | 21096 ft | 438 kts | 142° |
| 2026-04-25 15:05 | 43.81216 | 5.87134 | 20616 ft | 435 kts | 142° |
| 2026-04-25 15:06 | 43.76458 | 5.92205 | 19652 ft | 429 kts | 142° |
| 2026-04-25 15:06 | 43.74120 | 5.94692 | 19205 ft | 426 kts | 142° |
| 2026-04-25 15:06 | 43.71776 | 5.97183 | 18735 ft | 423 kts | 142° |
| 2026-04-25 15:06 | 43.69467 | 5.99635 | 18268 ft | 421 kts | 142° |
| 2026-04-25 15:07 | 43.67149 | 6.02093 | 17795 ft | 417 kts | 142° |
| 2026-04-25 15:07 | 43.64869 | 6.04509 | 17348 ft | 415 kts | 142° |
| 2026-04-25 15:07 | 43.62593 | 6.06918 | 16906 ft | 412 kts | 142° |
| 2026-04-25 15:07 | 43.60413 | 6.09405 | 16432 ft | 408 kts | 132° |
| 2026-04-25 15:08 | 43.58911 | 6.12701 | 15983 ft | 403 kts | 112° |
| 2026-04-25 15:08 | 43.57899 | 6.16264 | 15559 ft | 402 kts | 109° |
| 2026-04-25 15:08 | 43.56905 | 6.19863 | 15094 ft | 399 kts | 109° |
| 2026-04-25 15:08 | 43.55934 | 6.23384 | 14652 ft | 395 kts | 109° |
| 2026-04-25 15:09 | 43.54958 | 6.26923 | 14234 ft | 392 kts | 109° |
| 2026-04-25 15:09 | 43.54184 | 6.29726 | 13884 ft | 390 kts | 109° |
| 2026-04-25 15:09 | 43.52286 | 6.36588 | 13002 ft | 376 kts | 109° |
| 2026-04-25 15:10 | 43.51360 | 6.39927 | 12610 ft | 367 kts | 109° |
| 2026-04-25 15:10 | 43.50378 | 6.43085 | 12184 ft | 358 kts | 120° |
| 2026-04-25 15:10 | 43.47153 | 6.48098 | 11438 ft | 343 kts | 133° |
| 2026-04-25 15:11 | 43.45514 | 6.50467 | 11035 ft | 337 kts | 133° |
| 2026-04-25 15:11 | 43.43932 | 6.52750 | 10688 ft | 331 kts | 133° |
| 2026-04-25 15:11 | 43.42356 | 6.55021 | 10326 ft | 326 kts | 133° |
| 2026-04-25 15:12 | 43.39308 | 6.59516 | 9601 ft | 316 kts | 124° |
| 2026-04-25 15:12 | 43.38562 | 6.62265 | 9277 ft | 308 kts | 95° |
| 2026-04-25 15:12 | 43.38485 | 6.65162 | 8932 ft | 304 kts | 89° |
| 2026-04-25 15:12 | 43.38479 | 6.66117 | 8799 ft | 303 kts | 89° |
| 2026-04-25 15:13 | 43.38460 | 6.70881 | 8255 ft | 296 kts | 89° |
| 2026-04-25 15:13 | 43.38450 | 6.76465 | 7616 ft | 290 kts | 89° |
| 2026-04-25 15:13 | 43.38444 | 6.79209 | 7287 ft | 287 kts | 90° |
| 2026-04-25 15:14 | 43.38447 | 6.81903 | 6955 ft | 283 kts | 86° |
| 2026-04-25 15:14 | 43.39057 | 6.84438 | 6628 ft | 280 kts | 55° |
| 2026-04-25 15:14 | 43.40358 | 6.86412 | 6336 ft | 277 kts | 44° |
| 2026-04-25 15:14 | 43.41697 | 6.88253 | 6036 ft | 276 kts | 44° |
| 2026-04-25 15:15 | 43.43065 | 6.90124 | 5724 ft | 273 kts | 44° |
| 2026-04-25 15:15 | 43.44395 | 6.91940 | 5428 ft | 271 kts | 44° |
| 2026-04-25 15:15 | 43.45732 | 6.93764 | 5119 ft | 269 kts | 44° |
| 2026-04-25 15:15 | 43.47049 | 6.95563 | 4823 ft | 267 kts | 45° |
| 2026-04-25 15:16 | 43.48363 | 6.97357 | 4527 ft | 265 kts | 45° |
| 2026-04-25 15:16 | 43.49659 | 6.99129 | 4234 ft | 263 kts | 45° |
| 2026-04-25 15:16 | 43.52295 | 7.02758 | 3048 ft | 282 kts | 47° |
| 2026-04-25 15:17 | 43.54947 | 7.06512 | 2680 ft | 249 kts | 46° |
| 2026-04-25 15:17 | 43.56113 | 7.08106 | 2507 ft | 227 kts | 46° |
| 2026-04-25 15:17 | 43.57187 | 7.09563 | 2216 ft | 213 kts | 46° |
| 2026-04-25 15:18 | 43.58203 | 7.10942 | 1932 ft | 188 kts | 47° |
| 2026-04-25 15:18 | 43.59787 | 7.13089 | 1489 ft | 144 kts | 48° |
| 2026-04-25 15:18 | 43.60494 | 7.14053 | 1316 ft | 143 kts | 48° |
| 2026-04-25 15:19 | 43.61209 | 7.15027 | 1134 ft | 145 kts | 47° |
| 2026-04-25 15:19 | 43.61445 | 7.15349 | 1074 ft | 145 kts | 47° |
| 2026-04-25 15:19 | 43.62638 | 7.16970 | 757 ft | 144 kts | 47° |
| 2026-04-25 15:19 | 43.63356 | 7.17946 | 564 ft | 145 kts | 46° |
| 2026-04-25 15:20 | 43.64071 | 7.18920 | 373 ft | 145 kts | 46° |
| 2026-04-25 15:20 | 43.64789 | 7.19896 | 183 ft | 145 kts | 46° |
| 2026-04-25 15:20 | 43.65499 | 7.20853 | 33 ft | 139 kts | 46° |
| 2026-04-25 15:20 | 43.66099 | 7.21670 | 27 ft | 95 kts | 45° |
| 2026-04-25 15:21 | 43.66391 | 7.22012 | 27 ft | 24 kts | 14° |
| 2026-04-25 15:21 | 43.66547 | 7.22035 | 27 ft | 19 kts | 344° |
| 2026-04-25 15:21 | 43.66652 | 7.22105 | 27 ft | 17 kts | 54° |
| 2026-04-25 15:21 | 43.66731 | 7.22214 | 27 ft | 15 kts | 44° |
| 2026-04-25 15:22 | 43.66808 | 7.22314 | 27 ft | 14 kts | 45° |
| 2026-04-25 15:22 | 43.66873 | 7.22314 | 27 ft | 10 kts | 314° |
| 2026-04-25 15:22 | 43.66882 | 7.22301 | 27 ft | 0 kts | 316° |